Hauptseite
METAR-TAF:

METAR-TAF

Flughäfen :

Schleswig-Jagel, Deutschland

Fliegerhorst Schleswig

Breite: 54-28N, Länge: 009-31E, Höhe: 22 m

Beobachtung

Neuester Wetterbericht von vor 15 Minuten, um 11:20 UTC
Wind 12 kt aus Nordwest
Temperatur 9°C
Luftfeuchtigkeit 76%
Luftdruck 1030 hPa

METAR: ETNS 251120Z AUTO 31012KT //// // ////// 09/05 Q1030 ///

Zeit: 12:35 (11:35 UTC)

Prognose

Neuester Wetterbericht von vor 24 Stunden und 40 Minuten, um 10:55 UTC
Gültige Prognose vom 24 um 10 UTC bis 24 um 18 UTC
Wind 6 kt aus Nord/Nordwest
Sichtweite: 8000 m
Durchbrochene Bewölkung in der Höhe von 24000 ft

TAF: ETNS 241055Z 2410/2418 33006KT 8000 NSW BKN240 CANCEL 1100Z BY ETGL

Wetterbeobachtungen und Prognosen von mehr als 4000 Flughäfen (METAR und TAF Bericht).

Die verfügbaren Stationen werden durch gelbe und rote Markierungen auf der Karte dargestellt.

Führen Sie die Maus auf sie, um den Namen der Station zu sehen.

Darauf klicken, um die Beobachtung von Wetterbeobachtungen und Prognosen zu sehen.

Um die Karte zu ändern : klicken Sie auf den grünen Tasten mit einem schwarzen Kreuz Zum Vergrößern, auf den grünen Button mit einem Gedankenstrich zu verkleinern, oder auf die grünen Pfeile für benachbarte Karten.


METAR-TAF: